createdAt,value
2023-02-19T00:01:03.785Z,100009.44
2023-02-19T00:03:31.528Z,99996.34
2023-02-19T00:06:02.368Z,100005.97
2023-02-19T00:08:30.911Z,100014.69
2023-02-19T00:11:03.114Z,100003.34
2023-02-19T00:13:31.156Z,100005.06
2023-02-19T00:15:58.758Z,100013.84
2023-02-19T00:18:26.478Z,99984.19
2023-02-19T00:20:54.035Z,100012.09
2023-02-19T00:23:21.678Z,100008.53
2023-02-19T00:25:49.257Z,100010.34
2023-02-19T00:28:19.278Z,100009.50
2023-02-19T00:30:46.852Z,100005.97
2023-02-19T00:33:14.723Z,99992.00
2023-02-19T00:35:42.461Z,100001.63
2023-02-19T00:38:11.053Z,100000.72
2023-02-19T00:40:39.506Z,99993.66
2023-02-19T00:43:07.075Z,99990.19
2023-02-19T00:45:36.139Z,99977.88
2023-02-19T00:48:03.737Z,99982.31
2023-02-19T00:50:31.368Z,99977.03
2023-02-19T00:53:03.285Z,99971.88
2023-02-19T00:55:30.886Z,99974.41
2023-02-19T00:57:58.546Z,99978.84
2023-02-19T01:00:26.233Z,99978.78
2023-02-19T01:02:55.279Z,99974.56
2023-02-19T01:05:22.900Z,99988.47
2023-02-19T01:07:50.544Z,99990.19
2023-02-19T01:10:18.159Z,99970.09
2023-02-19T01:12:45.780Z,99967.41
2023-02-19T01:15:13.360Z,99981.41
2023-02-19T01:17:40.999Z,99979.66
2023-02-19T01:20:11.757Z,99990.13
2023-02-19T01:22:40.513Z,99986.59
2023-02-19T01:25:08.417Z,99981.41
2023-02-19T01:27:48.672Z,99978.72
2023-02-19T01:30:16.311Z,99981.34
2023-02-19T01:32:43.961Z,99976.94
2023-02-19T01:35:12.916Z,99969.16
2023-02-19T01:37:40.610Z,99963.91
2023-02-19T01:40:08.762Z,99976.09
2023-02-19T01:42:36.440Z,99977.03
2023-02-19T01:45:28.443Z,99935.13
2023-02-19T01:48:00.128Z,99963.00
2023-02-19T01:50:35.298Z,99975.19
2023-02-19T01:53:07.091Z,99951.66
2023-02-19T01:55:35.090Z,99964.69
2023-02-19T01:58:02.927Z,99920.50
2023-02-19T02:00:30.831Z,99966.47
2023-02-19T02:02:58.919Z,99958.59
2023-02-19T02:05:43.625Z,99960.41
2023-02-19T02:08:29.319Z,99953.44
2023-02-19T02:10:56.877Z,99956.91
2023-02-19T02:13:28.728Z,99975.34
2023-02-19T02:16:01.403Z,99951.72
2023-02-19T02:18:40.546Z,99961.28
2023-02-19T02:21:26.317Z,99946.47
2023-02-19T02:24:06.477Z,99931.84
2023-02-19T02:26:43.188Z,99983.16
2023-02-19T02:29:25.941Z,99957.78
2023-02-19T02:31:55.564Z,99963.94
2023-02-19T02:34:25.407Z,99975.28
2023-02-19T02:36:54.324Z,99970.09
2023-02-19T02:39:24.887Z,99940.50
2023-02-19T02:42:11.954Z,99977.88
2023-02-19T02:44:41.872Z,99928.31
2023-02-19T02:47:30.826Z,99970.03
2023-02-19T02:50:05.990Z,99964.75
2023-02-19T02:52:52.172Z,99951.69
2023-02-19T02:55:19.763Z,99963.84
2023-02-19T02:57:47.539Z,99950.78
2023-02-19T03:00:15.311Z,99970.00
2023-02-19T03:02:43.304Z,99970.00
2023-02-19T03:05:31.236Z,99974.34
2023-02-19T03:08:00.990Z,99964.81
2023-02-19T03:10:31.854Z,99980.50
2023-02-19T03:13:16.985Z,99983.97
2023-02-19T03:16:03.539Z,99985.78
2023-02-19T03:18:50.066Z,99983.22
2023-02-19T03:21:18.008Z,99979.69
2023-02-19T03:24:02.710Z,100005.97
2023-02-19T03:26:30.470Z,99998.94
2023-02-19T03:29:15.449Z,99999.81
2023-02-19T03:31:43.062Z,99996.34
2023-02-19T03:34:14.651Z,99996.38
2023-02-19T03:36:45.074Z,100005.97
2023-02-19T03:39:14.090Z,100000.66
2023-02-19T03:41:44.532Z,100007.69
2023-02-19T03:44:13.625Z,100006.78
2023-02-19T03:46:45.018Z,100005.94
2023-02-19T03:49:16.923Z,100012.06
2023-02-19T03:51:45.232Z,100015.56
2023-02-19T03:54:14.156Z,100013.81
2023-02-19T03:56:45.047Z,100006.88
2023-02-19T03:59:14.209Z,100010.25
2023-02-19T04:01:43.296Z,100016.38
2023-02-19T04:04:16.429Z,99970.38
2023-02-19T04:06:46.067Z,100009.50
2023-02-19T04:09:13.886Z,100023.38
2023-02-19T04:11:41.462Z,100022.53
2023-02-19T04:14:11.069Z,100025.19
2023-02-19T04:16:39.919Z,100029.53
2023-02-19T04:19:08.994Z,100033.94
2023-02-19T04:21:39.079Z,100033.06
2023-02-19T04:24:08.616Z,100022.69
2023-02-19T04:26:36.163Z,100044.47
2023-02-19T04:29:03.842Z,100047.09
2023-02-19T04:31:31.673Z,100048.91
2023-02-19T04:33:59.415Z,100021.00
2023-02-19T04:36:27.052Z,100056.81
2023-02-19T04:38:56.131Z,100018.53
2023-02-19T04:41:23.750Z,100068.22
2023-02-19T04:43:51.319Z,100073.47
2023-02-19T04:46:19.012Z,100066.50
2023-02-19T04:48:46.716Z,100066.44
2023-02-19T04:51:14.327Z,100080.41
2023-02-19T04:53:42.736Z,100083.03
2023-02-19T04:56:15.062Z,100084.81
2023-02-19T04:58:42.823Z,100080.47
2023-02-19T05:01:11.776Z,100084.03
2023-02-19T05:03:39.647Z,100080.56
2023-02-19T05:06:08.877Z,100089.34
2023-02-19T05:08:36.629Z,100087.53
2023-02-19T05:11:06.163Z,100091.06
2023-02-19T05:13:35.192Z,100091.06
2023-02-19T05:16:06.198Z,100087.59
2023-02-19T05:18:34.493Z,100103.31
2023-02-19T05:21:02.273Z,100101.56
2023-02-19T05:23:29.866Z,100109.47
2023-02-19T05:25:57.494Z,100119.13
2023-02-19T05:28:28.723Z,100112.13
2023-02-19T05:30:57.922Z,100113.88
2023-02-19T05:33:26.630Z,100130.50
2023-02-19T05:35:55.382Z,100133.97
2023-02-19T05:38:24.644Z,100134.88
2023-02-19T05:40:52.449Z,100130.47
2023-02-19T05:43:20.008Z,100130.56
2023-02-19T05:45:47.586Z,100141.91
2023-02-19T05:48:16.745Z,100142.75
2023-02-19T05:53:18.121Z,100145.41
2023-02-19T05:55:45.672Z,100160.28
2023-02-19T05:58:13.247Z,100155.03
2023-02-19T06:00:40.880Z,100162.03
2023-02-19T06:03:08.520Z,100153.25
2023-02-19T06:05:37.983Z,100157.66
2023-02-19T06:08:06.005Z,100162.91
2023-02-19T06:10:33.544Z,100168.16
2023-02-19T06:13:01.146Z,100168.19
2023-02-19T06:15:28.959Z,100169.06
2023-02-19T06:17:56.625Z,100176.03
2023-02-19T06:20:26.046Z,100168.25
2023-02-19T06:22:55.359Z,100176.09
2023-02-19T06:25:22.941Z,100185.69
2023-02-19T06:27:50.659Z,100176.97
2023-02-19T06:30:18.451Z,100169.13
2023-02-19T06:32:46.076Z,100184.84
2023-02-19T06:35:13.718Z,100184.00
2023-02-19T06:37:41.345Z,100171.84
2023-02-19T06:40:11.105Z,100198.00
2023-02-19T06:42:38.722Z,100200.63
2023-02-19T06:45:06.896Z,100196.28
2023-02-19T06:47:34.860Z,100203.25
2023-02-19T06:50:02.482Z,100200.69
2023-02-19T06:52:30.124Z,100206.81
2023-02-19T06:54:57.774Z,100201.56
2023-02-19T06:57:26.758Z,100221.72
2023-02-19T06:59:54.609Z,100219.94
2023-02-19T07:02:22.231Z,100233.06
2023-02-19T07:04:49.809Z,100223.50
2023-02-19T07:07:17.419Z,100240.09
2023-02-19T07:09:45.013Z,100242.75
2023-02-19T07:12:12.986Z,100243.63
2023-02-19T07:14:42.214Z,100260.31
2023-02-19T07:17:09.813Z,100261.13
2023-02-19T07:19:37.598Z,100258.50
2023-02-19T07:22:05.221Z,100256.78
2023-02-19T07:24:32.787Z,100263.78
2023-02-19T07:27:00.446Z,100266.38
2023-02-19T07:29:28.049Z,100270.75
2023-02-19T07:31:57.108Z,100280.34
2023-02-19T07:34:24.981Z,100282.13
2023-02-19T07:36:54.614Z,100287.34
2023-02-19T07:39:22.182Z,100293.41
2023-02-19T07:41:54.988Z,100304.81
2023-02-19T07:44:22.586Z,100306.53
2023-02-19T07:46:50.363Z,100302.19
2023-02-19T07:49:20.781Z,100307.44
2023-02-19T07:52:14.589Z,100313.53
2023-02-19T07:54:42.281Z,100308.31
2023-02-19T07:57:09.954Z,100245.56
2023-02-19T07:59:37.575Z,100327.53
2023-02-19T08:02:23.121Z,100337.25
2023-02-19T08:04:52.219Z,100320.53
2023-02-19T08:07:21.397Z,100289.19
2023-02-19T08:10:10.592Z,100322.31
2023-02-19T08:12:55.635Z,100322.31
2023-02-19T08:15:29.393Z,100335.44
2023-02-19T08:17:57.050Z,100227.56
2023-02-19T08:20:26.973Z,100244.81
2023-02-19T08:22:54.758Z,100322.59
2023-02-19T08:25:25.863Z,100309.50
2023-02-19T08:27:53.526Z,100380.19
2023-02-19T08:30:21.283Z,100218.69
2023-02-19T08:32:49.139Z,100366.03
2023-02-19T08:35:17.021Z,100258.03
2023-02-19T08:38:01.207Z,100368.63
2023-02-19T08:40:29.358Z,100134.94
2023-02-19T08:42:57.065Z,100060.06
2023-02-19T08:45:24.775Z,100152.34
2023-02-19T08:47:52.450Z,100370.31
2023-02-19T08:50:23.041Z,100401.06
2023-02-19T08:52:54.695Z,100414.91
2023-02-19T08:55:22.356Z,100298.75
2023-02-19T08:57:50.685Z,100372.84
2023-02-19T09:00:18.537Z,100398.22
2023-02-19T09:02:46.395Z,100330.22
2023-02-19T09:05:14.129Z,100311.06
2023-02-19T09:07:41.928Z,100325.72
2023-02-19T09:10:11.760Z,100356.19
2023-02-19T09:12:40.552Z,100388.44
2023-02-19T09:15:09.098Z,100247.16
2023-02-19T09:17:36.990Z,100317.03
2023-02-19T09:20:24.046Z,100239.41
2023-02-19T09:22:58.957Z,100023.41
2023-02-19T09:25:32.018Z,100115.84
2023-02-19T09:28:02.724Z,100275.56
2023-02-19T09:30:35.092Z,100351.38
2023-02-19T09:33:08.102Z,100163.66
2023-02-19T09:35:40.577Z,100128.88
2023-02-19T09:38:13.607Z,100258.72
2023-02-19T09:40:49.893Z,100316.31
2023-02-19T09:43:22.782Z,100252.75
2023-02-19T09:46:00.132Z,100338.19
2023-02-19T09:48:48.292Z,100407.13
2023-02-19T09:51:25.737Z,100015.69
2023-02-19T09:54:33.461Z,100009.66
2023-02-19T09:57:12.940Z,100432.97
2023-02-19T10:02:42.670Z,99974.75
2023-02-19T10:05:17.180Z,100358.28
2023-02-19T10:07:50.822Z,100452.75
2023-02-19T10:10:35.537Z,100139.28
2023-02-19T10:13:23.173Z,100465.44
2023-02-19T10:15:59.004Z,100127.25
2023-02-19T10:18:30.641Z,100236.19
2023-02-19T10:21:06.748Z,100478.06
2023-02-19T10:23:39.645Z,100442.19
2023-02-19T10:26:08.275Z,100409.78
2023-02-19T10:28:38.291Z,100050.63
2023-02-19T10:31:20.806Z,100497.06
2023-02-19T10:33:50.858Z,100410.78
2023-02-19T10:36:33.500Z,100526.91
2023-02-19T10:39:02.671Z,100442.34
2023-02-19T10:41:37.513Z,100529.66
2023-02-19T10:44:10.519Z,100541.84
2023-02-19T10:46:41.825Z,100547.66
2023-02-19T10:49:28.032Z,100370.84
2023-02-19T10:51:56.851Z,100445.41
2023-02-19T10:54:27.109Z,100319.84
2023-02-19T10:56:55.147Z,100347.97
2023-02-19T10:59:26.977Z,100481.44
2023-02-19T11:01:58.491Z,100543.13
2023-02-19T11:04:27.397Z,100169.97
2023-02-19T11:06:55.452Z,100242.16
2023-02-19T11:09:28.716Z,100242.78
2023-02-19T11:11:57.844Z,100563.59
2023-02-19T11:15:14.860Z,100553.78
2023-02-19T11:17:42.640Z,100496.34
2023-02-19T11:20:17.629Z,100521.19
2023-02-19T11:22:46.816Z,100543.25
2023-02-19T11:25:20.267Z,100515.22
2023-02-19T11:27:55.516Z,100500.00
2023-02-19T11:30:36.765Z,100549.19
2023-02-19T11:33:20.049Z,100555.81
2023-02-19T11:35:48.111Z,100523.03
2023-02-19T11:38:16.756Z,100542.41
2023-02-19T11:40:46.414Z,100555.78
2023-02-19T11:43:26.048Z,100529.78
2023-02-19T11:45:58.889Z,100552.44
2023-02-19T11:48:37.191Z,100490.50
2023-02-19T11:51:21.276Z,100539.31
2023-02-19T11:53:50.008Z,100517.63
2023-02-19T11:56:19.356Z,100542.97
2023-02-19T11:58:53.218Z,100545.59
2023-02-19T12:01:25.232Z,100537.75
2023-02-19T12:04:03.764Z,100544.81
2023-02-19T12:06:32.762Z,100497.56
2023-02-19T12:09:21.436Z,100530.63
2023-02-19T12:11:59.537Z,100535.00
2023-02-19T12:14:52.265Z,100533.31
2023-02-19T12:17:30.282Z,100521.31
2023-02-19T12:20:03.242Z,100537.97
2023-02-19T12:22:31.592Z,100542.44
2023-02-19T12:25:27.609Z,100550.50
2023-02-19T12:28:13.104Z,100559.38
2023-02-19T12:30:49.359Z,100560.31
2023-02-19T12:33:40.218Z,100570.75
2023-02-19T12:36:11.636Z,100552.44
2023-02-19T12:38:42.738Z,100561.03
2023-02-19T12:41:21.609Z,100580.31
2023-02-19T12:43:54.091Z,100567.09
2023-02-19T12:46:23.418Z,100574.13
2023-02-19T12:48:54.077Z,100567.28
2023-02-19T12:51:23.425Z,100570.84
2023-02-19T12:53:52.989Z,100570.03
2023-02-19T12:56:23.926Z,100525.53
2023-02-19T12:58:53.374Z,100570.03
2023-02-19T13:01:23.394Z,100566.47
2023-02-19T13:03:54.438Z,100570.78
2023-02-19T13:06:27.987Z,100548.00
2023-02-19T13:09:06.430Z,100576.56
2023-02-19T13:11:36.769Z,100584.38
2023-02-19T13:14:06.005Z,100576.56
2023-02-19T13:16:34.932Z,100580.16
2023-02-19T13:19:04.813Z,100581.19
2023-02-19T13:21:47.404Z,100581.25
2023-02-19T13:24:17.352Z,100541.13
2023-02-19T13:27:05.787Z,100573.56
2023-02-19T13:29:55.743Z,100515.97
2023-02-19T13:32:30.756Z,100572.72
2023-02-19T13:35:15.438Z,100570.97
2023-02-19T13:37:43.146Z,100578.84
2023-02-19T13:40:20.905Z,100588.50
2023-02-19T13:42:52.541Z,100592.06
2023-02-19T13:45:22.696Z,100594.66
2023-02-19T13:47:58.534Z,100584.13
2023-02-19T13:50:28.249Z,100608.66
2023-02-19T13:52:55.852Z,100598.19
2023-02-19T13:55:51.863Z,100606.00
2023-02-19T13:58:57.871Z,100594.63
2023-02-19T14:02:14.397Z,100606.84
2023-02-19T14:04:44.560Z,100583.28
2023-02-19T14:08:03.778Z,100614.69
2023-02-19T14:11:02.298Z,100624.38
2023-02-19T14:14:09.580Z,100580.72
2023-02-19T14:17:17.519Z,100626.97
2023-02-19T14:19:56.081Z,100583.34
2023-02-19T14:23:02.369Z,100636.63
2023-02-19T14:25:46.542Z,100630.50
2023-02-19T14:28:25.916Z,100641.06
2023-02-19T14:30:54.334Z,100674.47
2023-02-19T14:33:23.210Z,100649.88
2023-02-19T14:35:53.810Z,100668.34
2023-02-19T14:38:22.987Z,100608.03
2023-02-19T14:40:50.725Z,100600.22
2023-02-19T14:43:21.959Z,100657.78
2023-02-19T14:45:50.984Z,100658.66
2023-02-19T14:48:20.979Z,100598.31
2023-02-19T14:50:49.923Z,100634.13
2023-02-19T14:53:17.652Z,100639.34
2023-02-19T14:55:46.028Z,100634.13
2023-02-19T14:58:14.989Z,100629.91
2023-02-19T15:00:44.378Z,100627.13
2023-02-19T15:03:28.263Z,100616.66
2023-02-19T15:05:57.346Z,100559.91
2023-02-19T15:08:28.385Z,100628.06
2023-02-19T15:10:56.992Z,100624.53
2023-02-19T15:13:26.334Z,100582.63
2023-02-19T15:15:56.015Z,100636.78
2023-02-19T15:18:25.522Z,100620.16
2023-02-19T15:20:53.617Z,100611.50
2023-02-19T15:23:23.194Z,100613.19
2023-02-19T15:25:53.496Z,100586.16
2023-02-19T15:28:23.374Z,100558.19
2023-02-19T15:30:51.026Z,100614.16
2023-02-19T15:33:20.641Z,100577.47
2023-02-19T15:35:49.222Z,100574.84
2023-02-19T15:38:16.848Z,100590.59
2023-02-19T15:40:45.411Z,100591.50
2023-02-19T15:43:19.287Z,100587.97
2023-02-19T15:45:46.994Z,100581.84
2023-02-19T15:48:15.776Z,100568.78
2023-02-19T15:50:46.291Z,100578.38
2023-02-19T15:53:15.226Z,100591.53
2023-02-19T15:55:44.063Z,100546.16
2023-02-19T15:58:15.457Z,100603.84
2023-02-19T16:00:46.710Z,100530.50
2023-02-19T16:03:17.044Z,100620.56
2023-02-19T16:05:46.182Z,100583.84
2023-02-19T16:08:18.965Z,100596.06
2023-02-19T16:10:56.827Z,100585.66
2023-02-19T16:13:25.428Z,100536.69
2023-02-19T16:15:58.844Z,100597.03
2023-02-19T16:18:26.519Z,100625.91
2023-02-19T16:20:55.563Z,100631.16
2023-02-19T16:23:25.298Z,100632.94
2023-02-19T16:25:58.870Z,100597.09
2023-02-19T16:28:27.242Z,100498.34
2023-02-19T16:30:58.394Z,100608.44
2023-02-19T16:33:39.374Z,100643.44
2023-02-19T16:36:26.339Z,100595.34
2023-02-19T16:39:01.828Z,100654.81
2023-02-19T16:41:29.443Z,100584.88
2023-02-19T16:43:57.113Z,100657.47
2023-02-19T16:46:24.673Z,100654.84
2023-02-19T16:48:52.865Z,100656.63
2023-02-19T16:51:24.903Z,100675.88
2023-02-19T16:53:52.567Z,100667.13
2023-02-19T16:56:22.860Z,100656.63
2023-02-19T16:58:50.608Z,100640.00
2023-02-19T17:01:18.714Z,100685.50
2023-02-19T17:03:46.932Z,100652.25
2023-02-19T17:06:14.646Z,100626.91
2023-02-19T17:08:43.685Z,100714.38
2023-02-19T17:11:15.000Z,100715.28
2023-02-19T17:13:42.776Z,100693.38
2023-02-19T17:16:13.693Z,100718.75
2023-02-19T17:18:41.294Z,100734.50
2023-02-19T17:21:30.595Z,100730.09
2023-02-19T17:23:59.633Z,100738.88
2023-02-19T17:26:34.203Z,100741.50
2023-02-19T17:29:02.797Z,100753.72
2023-02-19T17:31:30.524Z,100746.69
2023-02-19T17:33:58.898Z,100764.19
2023-02-19T17:36:30.476Z,100744.06
2023-02-19T17:38:59.647Z,100755.44
2023-02-19T17:41:27.231Z,100751.91
2023-02-19T17:43:55.072Z,100749.31
2023-02-19T17:46:23.654Z,100733.53
2023-02-19T17:48:51.492Z,100688.84
2023-02-19T17:53:52.966Z,100765.03
2023-02-19T17:56:23.007Z,100771.16
2023-02-19T17:58:50.800Z,100766.78
2023-02-19T18:01:18.554Z,100760.66
2023-02-19T18:03:46.188Z,100768.53
2023-02-19T18:06:13.889Z,100760.66
2023-02-19T18:08:43.634Z,100761.50
2023-02-19T18:11:11.468Z,100766.75
2023-02-19T18:13:40.593Z,100768.50
2023-02-19T18:16:09.783Z,100768.50
2023-02-19T18:18:37.552Z,100770.22
2023-02-19T18:21:05.606Z,100764.06
2023-02-19T18:23:33.258Z,100764.06
2023-02-19T18:26:00.884Z,100772.84
2023-02-19T18:28:28.464Z,100785.09
2023-02-19T18:30:57.542Z,100768.47
2023-02-19T18:33:25.144Z,100776.34
2023-02-19T18:35:52.693Z,100786.84
2023-02-19T18:38:20.733Z,100789.44
2023-02-19T18:40:48.315Z,100784.19
2023-02-19T18:43:16.097Z,100788.56
2023-02-19T18:45:45.338Z,100783.28
2023-02-19T18:48:14.332Z,100797.28
2023-02-19T18:50:41.884Z,100803.41
2023-02-19T18:53:09.528Z,100799.03
2023-02-19T18:55:37.088Z,100807.78
2023-02-19T18:58:04.693Z,100809.50
2023-02-19T19:00:32.377Z,100812.13
2023-02-19T19:03:00.315Z,100817.38
2023-02-19T19:05:29.311Z,100819.09
2023-02-19T19:07:59.005Z,100818.22
2023-02-19T19:10:26.937Z,100815.66
2023-02-19T19:12:54.857Z,100819.13
2023-02-19T19:15:23.077Z,100808.56
2023-02-19T19:17:50.665Z,100819.94
2023-02-19T19:20:19.439Z,100807.66
2023-02-19T19:22:49.898Z,100819.91
2023-02-19T19:25:17.663Z,100820.78
2023-02-19T19:27:45.200Z,100834.78
2023-02-19T19:30:13.507Z,100839.13
2023-02-19T19:32:41.127Z,100843.53
2023-02-19T19:35:09.583Z,100845.19
2023-02-19T19:37:37.149Z,100846.97
2023-02-19T19:40:07.517Z,100834.69
2023-02-19T19:42:35.055Z,100841.69
2023-02-19T19:45:02.701Z,100832.09
2023-02-19T19:47:30.757Z,100816.31
2023-02-19T19:49:58.479Z,100821.59
2023-02-19T19:52:26.039Z,100824.19
2023-02-19T19:54:54.383Z,100830.31
2023-02-19T19:57:23.543Z,100834.66
2023-02-19T19:59:53.552Z,100837.25
2023-02-19T20:02:21.128Z,100835.50
2023-02-19T20:04:48.730Z,100847.72
2023-02-19T20:07:16.394Z,100849.47
2023-02-19T20:09:47.847Z,100842.38
2023-02-19T20:12:17.828Z,100862.53
2023-02-19T20:14:47.073Z,100855.53
2023-02-19T20:17:14.771Z,100860.78
2023-02-19T20:19:42.492Z,100851.19
2023-02-19T20:22:10.124Z,100850.31
2023-02-19T20:24:37.816Z,100840.75
2023-02-19T20:27:05.439Z,100833.72
2023-02-19T20:29:35.066Z,100848.59
2023-02-19T20:32:04.370Z,100853.81
2023-02-19T20:34:31.979Z,100854.69
2023-02-19T20:36:59.548Z,100851.16
2023-02-19T20:39:29.144Z,100874.75
2023-02-19T20:41:57.510Z,100869.53
2023-02-19T20:44:25.445Z,100838.78
2023-02-19T20:46:53.134Z,100864.25
2023-02-19T20:49:23.627Z,100862.53
2023-02-19T20:51:53.186Z,100876.50
2023-02-19T20:54:21.099Z,100867.69
2023-02-19T20:56:49.367Z,100886.09
2023-02-19T20:59:17.415Z,100889.56
2023-02-19T21:01:45.093Z,100881.69
2023-02-19T21:04:12.725Z,100885.19
2023-02-19T21:06:41.797Z,100879.94
2023-02-19T21:09:09.411Z,100879.03
2023-02-19T21:11:37.013Z,100843.00
2023-02-19T21:14:04.629Z,100878.16
2023-02-19T21:16:32.878Z,100869.38
2023-02-19T21:19:00.495Z,100869.38
2023-02-19T21:21:30.082Z,100871.97
2023-02-19T21:23:59.807Z,100879.81
2023-02-19T21:26:33.765Z,100875.47
2023-02-19T21:29:01.403Z,100868.41
2023-02-19T21:31:36.684Z,100881.50
2023-02-19T21:34:05.522Z,100887.59
2023-02-19T21:36:33.111Z,100881.44
2023-02-19T21:39:02.304Z,100885.75
2023-02-19T21:41:29.854Z,100897.13
2023-02-19T21:43:57.493Z,100897.13
2023-02-19T21:46:25.201Z,100894.53
2023-02-19T21:48:53.025Z,100899.72
2023-02-19T21:51:21.399Z,100906.72
2023-02-19T21:53:49.017Z,100894.44
2023-02-19T21:56:23.290Z,100896.13
2023-02-19T21:58:51.061Z,100876.84
2023-02-19T22:01:20.898Z,100889.91
2023-02-19T22:03:48.620Z,100878.41
2023-02-19T22:06:16.296Z,100884.44
2023-02-19T22:08:44.124Z,100893.91
2023-02-19T22:11:11.722Z,100897.25
2023-02-19T22:13:40.705Z,100901.50
2023-02-19T22:16:08.576Z,100903.06
2023-02-19T22:18:36.421Z,100901.22
2023-02-19T22:21:04.266Z,100898.41
2023-02-19T22:23:32.429Z,100905.25
2023-02-19T22:26:00.086Z,100899.91
2023-02-19T22:28:27.752Z,100900.69
2023-02-19T22:30:56.874Z,100900.50
2023-02-19T22:33:24.655Z,100902.19
2023-02-19T22:35:52.272Z,100904.72
2023-02-19T22:38:19.834Z,100906.31
2023-02-19T22:40:47.509Z,100903.69
2023-02-19T22:43:17.906Z,100900.91
2023-02-19T22:45:45.703Z,100905.31
2023-02-19T22:48:19.242Z,100921.81
2023-02-19T22:50:54.705Z,100915.69
2023-02-19T22:53:22.299Z,100904.34
2023-02-19T22:55:49.964Z,100908.69
2023-02-19T22:58:17.785Z,100912.09
2023-02-19T23:00:45.375Z,100907.78
2023-02-19T23:03:14.385Z,100908.53
2023-02-19T23:05:42.031Z,100904.19
2023-02-19T23:08:09.583Z,100915.47
2023-02-19T23:10:37.361Z,100877.66
2023-02-19T23:13:05.286Z,100911.03
2023-02-19T23:15:32.879Z,100899.66
2023-02-19T23:18:00.449Z,100898.78
2023-02-19T23:20:29.480Z,100900.41
2023-02-19T23:22:57.022Z,100896.06
2023-02-19T23:25:24.654Z,100893.41
2023-02-19T23:27:52.652Z,100889.03
2023-02-19T23:30:21.360Z,100888.09
2023-02-19T23:32:48.958Z,100921.13
2023-02-19T23:35:16.961Z,100871.44
2023-02-19T23:37:45.861Z,100878.44
2023-02-19T23:40:14.552Z,100882.75
2023-02-19T23:42:42.186Z,100878.38
2023-02-19T23:45:10.403Z,100869.63
2023-02-19T23:47:38.037Z,100868.75
2023-02-19T23:50:07.058Z,100867.88
2023-02-19T23:52:34.706Z,100856.31
2023-02-19T23:55:03.620Z,100866.94
2023-02-19T23:57:32.328Z,100873.91
2023-02-19T23:59:59.904Z,100866.97
